CheckWX is a tool to help pilots better visualize weather data.  It is not intended as a substitute for an official pre-flight weather briefing.

07:23:42 UTC

LIPA TAF
Aviano Air Base Airport
Aviano, Italy
TAF LIPA 200500Z 2006/2015 VRB04KT 9999 SCT040 SCT100 TEMPO 2009/2015 3000 TSRA FEW020CB SCT040

Jun-20@
06:00 UTC

Jun-20 @ 06:00 UTC

Jun-20@
15:00 UTC

Jun-20 @ 15:00 UTC

TAF LIPA 200500Z 2006/2015 VRB04KT 9999 SCT040 SCT100
Wind
  • Variable at 4 KTS
Cloud Levels
  • Scattered at 4,000' AGL
  • Scattered at 10,000' AGL

Jun-20@
09:00 UTC

Jun-20 @ 09:00 UTC

Jun-20@
15:00 UTC

Jun-20 @ 15:00 UTC

TEMPO 2009/2015 3000 TSRA FEW020CB SCT040

Temporary

Temporary Changes expected for less than half the time period

Conditions
Thunderstorm, Rain
Cloud Levels
  • Few at 2,000' AGL
  • Scattered at 4,000' AGL